Time;durP1;ratioP1;P1;durP2;ratioP2;P2;SDS_P1;SDS_P2;PMS_P1;PMS_P2;Temp;Humidity;BMP_temperature;BMP_pressure;BME280_temperature;BME280_humidity;BME280_pressure;Samples;Min_cycle;Max_cycle;Signal;HPM_P1;HPM_P2
2023/12/16 00:02:19;;;;;;;13.77;7.47;;;6.30;1.00;;;;;;4988076;28;20262;-76
2023/12/16 00:04:44;;;;;;;13.90;8.17;;;6.20;1.00;;;;;;4987137;28;20573;-77
2023/12/16 00:07:10;;;;;;;17.43;7.87;;;6.30;1.00;;;;;;4988319;28;20190;-74
2023/12/16 00:09:36;;;;;;;12.50;7.23;;;6.20;1.00;;;;;;4987780;28;20252;-75
2023/12/16 00:12:02;;;;;;;12.60;7.43;;;6.60;1.00;;;;;;4986526;28;20194;-77
2023/12/16 00:14:28;;;;;;;15.37;6.57;;;6.20;1.00;;;;;;4987210;28;20211;-76
2023/12/16 00:16:53;;;;;;;13.70;6.70;;;6.50;1.00;;;;;;4987905;28;20462;-76
2023/12/16 00:19:19;;;;;;;13.80;8.13;;;6.10;1.00;;;;;;4985156;28;20183;-73
2023/12/16 00:21:44;;;;;;;12.60;7.50;;;6.00;1.00;;;;;;4985881;28;20568;-76
2023/12/16 00:24:10;;;;;;;16.23;7.37;;;6.00;1.00;;;;;;4988035;28;20297;-76
2023/12/16 00:26:35;;;;;;;14.90;7.77;;;5.90;1.00;;;;;;4988010;28;20262;-77
2023/12/16 00:29:01;;;;;;;13.37;7.50;;;6.00;1.00;;;;;;4991861;28;20187;-75
2023/12/16 00:31:27;;;;;;;15.40;6.97;;;6.00;1.00;;;;;;4990754;28;20207;-76
2023/12/16 00:33:53;;;;;;;14.00;6.60;;;6.30;1.00;;;;;;4990297;28;20230;-76
2023/12/16 00:36:18;;;;;;;16.03;7.53;;;6.00;1.00;;;;;;4991696;28;20576;-76
2023/12/16 00:38:44;;;;;;;14.57;7.30;;;6.20;1.00;;;;;;4991209;28;20187;-76
2023/12/16 00:41:09;;;;;;;14.97;7.03;;;6.10;1.00;;;;;;4990721;28;20716;-75
2023/12/16 00:43:35;;;;;;;13.07;7.50;;;6.50;1.00;;;;;;4989183;28;20546;-73
2023/12/16 00:46:00;;;;;;;11.03;6.80;;;6.10;1.00;;;;;;4991779;28;20191;-76
2023/12/16 00:48:26;;;;;;;10.47;6.67;;;6.20;1.00;;;;;;4987357;28;20171;-76
2023/12/16 00:50:51;;;;;;;11.47;7.33;;;6.20;1.00;;;;;;4987677;28;20211;-75
2023/12/16 00:53:17;;;;;;;15.07;8.43;;;6.20;1.00;;;;;;4988883;28;20672;-75
2023/12/16 00:55:42;;;;;;;17.20;8.70;;;6.60;1.00;;;;;;4991249;28;20633;-75
2023/12/16 00:58:08;;;;;;;16.83;8.33;;;6.50;1.00;;;;;;4989752;28;20175;-76
2023/12/16 01:00:34;;;;;;;16.63;8.20;;;6.20;1.00;;;;;;4990463;28;20226;-77
2023/12/16 01:02:59;;;;;;;15.30;7.83;;;6.50;1.00;;;;;;4990420;28;20199;-76
2023/12/16 01:05:26;;;;;;;16.93;8.00;;;6.30;1.00;;;;;;4990463;28;20185;-77
2023/12/16 01:07:51;;;;;;;14.07;8.00;;;6.20;1.00;;;;;;4989345;28;20187;-77
2023/12/16 01:10:17;;;;;;;14.63;7.67;;;6.20;1.00;;;;;;4990011;28;20442;-76
2023/12/16 01:12:42;;;;;;;13.07;7.50;;;6.20;1.00;;;;;;4990360;28;20511;-76
2023/12/16 01:15:08;;;;;;;11.27;6.50;;;6.10;1.00;;;;;;4990739;28;20191;-76
2023/12/16 01:17:34;;;;;;;16.67;8.07;;;6.10;1.00;;;;;;4990736;28;20238;-75
2023/12/16 01:19:59;;;;;;;15.53;8.70;;;6.20;1.00;;;;;;4987353;28;20214;-76
2023/12/16 01:22:25;;;;;;;14.80;8.10;;;6.50;1.00;;;;;;4991729;28;20271;-76
2023/12/16 01:24:50;;;;;;;14.63;8.13;;;6.70;1.00;;;;;;4990068;28;20191;-76
2023/12/16 01:27:16;;;;;;;13.40;7.13;;;6.20;1.00;;;;;;4988064;28;20195;-77
2023/12/16 01:29:41;;;;;;;15.07;7.60;;;6.20;1.00;;;;;;4987536;28;20215;-76
2023/12/16 01:32:08;;;;;;;22.20;8.53;;;6.20;1.00;;;;;;4990087;28;20558;-75
2023/12/16 01:34:33;;;;;;;15.93;7.60;;;6.20;1.00;;;;;;4988943;28;20274;-75
2023/12/16 01:36:59;;;;;;;15.50;8.53;;;6.20;1.00;;;;;;4990149;28;20553;-76
2023/12/16 01:39:24;;;;;;;14.40;7.80;;;6.40;1.00;;;;;;4989426;28;20880;-75
2023/12/16 01:41:50;;;;;;;16.63;8.73;;;6.20;1.00;;;;;;4989176;28;20207;-75
2023/12/16 01:44:16;;;;;;;14.17;7.00;;;6.20;1.00;;;;;;4984450;28;20175;-75
2023/12/16 01:46:42;;;;;;;12.27;7.60;;;6.20;1.00;;;;;;4990363;28;20193;-76
2023/12/16 01:49:08;;;;;;;15.90;8.40;;;6.20;1.00;;;;;;4988062;28;20195;-76
2023/12/16 01:51:34;;;;;;;14.80;8.00;;;6.10;1.00;;;;;;4988588;28;20556;-76
2023/12/16 01:54:00;;;;;;;16.73;7.93;;;6.20;1.00;;;;;;4989638;28;20968;-77
2023/12/16 01:56:28;;;;;;;16.27;8.10;;;6.30;1.00;;;;;;4989770;28;20207;-77
2023/12/16 01:58:54;;;;;;;13.47;8.13;;;6.30;1.00;;;;;;4988809;28;20441;-76
2023/12/16 02:01:20;;;;;;;13.60;7.20;;;6.40;1.00;;;;;;4986612;28;20446;-76
2023/12/16 02:03:47;;;;;;;12.43;7.67;;;6.40;1.00;;;;;;4986723;28;20226;-76
2023/12/16 02:06:14;;;;;;;13.93;7.10;;;6.40;1.00;;;;;;4987082;28;20434;-76
2023/12/16 02:08:40;;;;;;;11.93;7.07;;;6.40;1.00;;;;;;4990144;28;20984;-78
2023/12/16 02:11:10;;;;;;;18.27;7.47;;;6.40;1.00;;;;;;4987320;28;20438;-78
2023/12/16 02:13:42;;;;;;;17.00;7.30;;;6.50;1.00;;;;;;4985917;28;20183;-73
2023/12/16 02:16:09;;;;;;;14.90;6.97;;;6.50;1.00;;;;;;4982266;28;20465;-75
2023/12/16 02:18:36;;;;;;;13.73;7.17;;;6.40;1.00;;;;;;4988695;28;20418;-73
2023/12/16 02:21:01;;;;;;;11.73;6.63;;;6.40;1.00;;;;;;4987849;28;20505;-76
2023/12/16 02:23:26;;;;;;;14.30;7.20;;;6.30;1.00;;;;;;4988022;28;20450;-76
2023/12/16 02:25:52;;;;;;;17.10;8.20;;;6.60;1.00;;;;;;4988883;28;20179;-75
2023/12/16 02:28:17;;;;;;;15.20;9.37;;;8.90;1.00;;;;;;4989417;28;20186;-76
2023/12/16 02:30:43;;;;;;;14.27;7.77;;;6.60;1.00;;;;;;4987710;28;20211;-76
2023/12/16 02:33:08;;;;;;;21.23;8.67;;;6.60;1.00;;;;;;4988967;28;20183;-76
2023/12/16 02:35:34;;;;;;;15.53;7.77;;;6.70;1.00;;;;;;4988859;28;20187;-77
2023/12/16 02:38:00;;;;;;;16.90;7.97;;;6.70;1.00;;;;;;4988775;28;20221;-77
2023/12/16 02:40:25;;;;;;;16.73;8.60;;;6.70;1.00;;;;;;4987769;28;20708;-77
2023/12/16 02:42:51;;;;;;;10.37;6.80;;;6.70;1.00;;;;;;4984945;28;20455;-77
2023/12/16 02:45:17;;;;;;;14.97;7.90;;;6.70;1.00;;;;;;4989600;28;20262;-75
2023/12/16 02:47:43;;;;;;;13.20;7.20;;;6.70;1.00;;;;;;4988833;28;20195;-76
2023/12/16 02:50:09;;;;;;;18.03;7.83;;;6.60;1.00;;;;;;4987669;28;20528;-77
2023/12/16 02:52:34;;;;;;;15.30;7.30;;;6.60;1.00;;;;;;4988568;28;20179;-78
2023/12/16 02:55:00;;;;;;;16.87;7.30;;;6.60;1.00;;;;;;4988656;28;20215;-77
2023/12/16 02:57:25;;;;;;;23.60;8.70;;;6.60;1.00;;;;;;4988823;28;20206;-76
2023/12/16 02:59:50;;;;;;;15.87;8.00;;;6.60;1.00;;;;;;4987628;28;20191;-75
2023/12/16 03:02:16;;;;;;;14.50;7.90;;;6.60;1.00;;;;;;4987184;28;20183;-77
2023/12/16 03:04:41;;;;;;;18.53;7.87;;;6.60;1.00;;;;;;4987913;28;20193;-76
2023/12/16 03:07:07;;;;;;;12.77;7.27;;;6.60;1.00;;;;;;4985191;28;20186;-76
2023/12/16 03:09:33;;;;;;;12.87;7.90;;;6.60;1.00;;;;;;4988828;28;20293;-77
2023/12/16 03:12:00;;;;;;;16.23;7.30;;;6.40;1.00;;;;;;4980361;28;20447;-76
2023/12/16 03:14:26;;;;;;;15.30;7.90;;;6.60;1.00;;;;;;4989283;28;20183;-77
2023/12/16 03:16:52;;;;;;;18.73;8.20;;;6.60;1.00;;;;;;4985813;28;20539;-76
2023/12/16 03:19:17;;;;;;;12.93;8.07;;;6.60;1.00;;;;;;4984574;28;20183;-77
2023/12/16 03:21:43;;;;;;;16.50;7.67;;;6.60;1.00;;;;;;4983223;28;21445;-76
2023/12/16 03:24:08;;;;;;;15.10;7.27;;;6.60;1.00;;;;;;4981306;28;20194;-76
2023/12/16 03:26:34;;;;;;;16.57;8.10;;;6.60;1.00;;;;;;4988298;28;20248;-76
2023/12/16 03:29:00;;;;;;;35.90;8.97;;;6.60;1.00;;;;;;4989016;28;20562;-77
2023/12/16 03:31:25;;;;;;;13.13;8.00;;;6.60;1.00;;;;;;4986735;28;20294;-77
2023/12/16 03:33:53;;;;;;;15.87;7.77;;;6.70;1.00;;;;;;4984536;28;20266;-76
2023/12/16 03:36:19;;;;;;;18.40;7.87;;;6.70;1.00;;;;;;4986865;28;20199;-77
2023/12/16 03:38:44;;;;;;;15.97;8.30;;;6.70;1.00;;;;;;4989172;28;20427;-77
2023/12/16 03:41:11;;;;;;;20.67;8.87;;;6.70;1.00;;;;;;4987723;28;20816;-75
2023/12/16 03:43:37;;;;;;;14.90;7.60;;;6.70;1.00;;;;;;4979470;28;20189;-76
2023/12/16 03:46:04;;;;;;;13.10;7.70;;;6.70;1.00;;;;;;4987629;28;20447;-76
2023/12/16 03:48:29;;;;;;;12.07;7.07;;;6.70;1.00;;;;;;4987120;28;21009;-77
2023/12/16 03:50:55;;;;;;;23.40;9.23;;;6.60;1.00;;;;;;4987256;28;20294;-76
2023/12/16 03:53:20;;;;;;;21.60;8.60;;;6.50;1.00;;;;;;4986302;28;20262;-76
2023/12/16 03:55:46;;;;;;;14.57;7.70;;;6.50;1.00;;;;;;4988632;28;20273;-78
2023/12/16 03:58:11;;;;;;;13.57;8.43;;;6.50;1.00;;;;;;4988220;28;20250;-76
2023/12/16 04:00:37;;;;;;;12.67;7.50;;;6.50;1.00;;;;;;4988298;28;20847;-78
2023/12/16 04:03:03;;;;;;;23.23;8.53;;;6.50;1.00;;;;;;4987864;28;20687;-76
2023/12/16 04:05:28;;;;;;;15.90;8.30;;;6.50;1.00;;;;;;4991534;28;20222;-76
2023/12/16 04:07:54;;;;;;;15.27;8.23;;;6.50;1.00;;;;;;4991772;28;20198;-76
2023/12/16 04:10:20;;;;;;;19.13;8.47;;;6.50;1.00;;;;;;4991511;28;20612;-75
2023/12/16 04:12:45;;;;;;;17.03;8.33;;;6.50;1.00;;;;;;4988903;28;20187;-76
2023/12/16 04:15:12;;;;;;;16.60;8.13;;;6.50;1.00;;;;;;4991901;28;20561;-75
2023/12/16 04:17:37;;;;;;;17.30;8.77;;;6.40;1.00;;;;;;4992018;28;20211;-76
2023/12/16 04:20:03;;;;;;;16.13;8.00;;;6.30;1.00;;;;;;4990197;28;20986;-77
2023/12/16 04:22:29;;;;;;;17.70;7.10;;;6.30;1.00;;;;;;4988643;28;20250;-76
2023/12/16 04:24:57;;;;;;;17.53;8.63;;;6.30;1.00;;;;;;4989985;28;20425;-75
2023/12/16 04:27:24;;;;;;;19.83;8.47;;;6.30;1.00;;;;;;4991619;28;20214;-76
2023/12/16 04:29:50;;;;;;;18.97;8.03;;;6.30;1.00;;;;;;4991665;28;20431;-76
2023/12/16 04:32:15;;;;;;;19.73;8.93;;;6.40;1.00;;;;;;4987431;28;20422;-78
2023/12/16 04:34:41;;;;;;;13.93;7.50;;;6.40;1.00;;;;;;4990900;28;20188;-76
2023/12/16 04:37:06;;;;;;;12.33;7.63;;;6.40;1.00;;;;;;4991188;28;20847;-76
2023/12/16 04:39:32;;;;;;;18.10;7.10;;;6.50;1.00;;;;;;4991670;28;20187;-76
2023/12/16 04:41:57;;;;;;;14.00;7.80;;;6.50;1.00;;;;;;4988958;28;20203;-76
2023/12/16 04:44:23;;;;;;;12.60;7.07;;;6.50;1.00;;;;;;4986388;28;20187;-76
2023/12/16 04:46:48;;;;;;;16.43;8.10;;;6.50;1.00;;;;;;4991220;28;20198;-76
2023/12/16 04:49:14;;;;;;;15.87;8.20;;;6.50;1.00;;;;;;4990216;28;20201;-76
2023/12/16 04:51:39;;;;;;;15.60;8.30;;;6.60;1.00;;;;;;4989490;28;20566;-77
2023/12/16 04:54:05;;;;;;;13.63;8.10;;;6.50;1.00;;;;;;4990953;28;20646;-75
2023/12/16 04:56:30;;;;;;;15.90;8.63;;;6.50;1.00;;;;;;4990895;28;20840;-76
2023/12/16 04:58:56;;;;;;;16.27;8.20;;;6.50;1.00;;;;;;4991575;28;20195;-76
2023/12/16 05:01:21;;;;;;;19.60;8.37;;;6.50;1.00;;;;;;4989635;28;20301;-76
2023/12/16 05:03:47;;;;;;;13.77;7.50;;;6.50;1.00;;;;;;4990429;28;20627;-75
2023/12/16 05:06:13;;;;;;;20.07;10.30;;;6.50;1.00;;;;;;4989995;28;20179;-75
2023/12/16 05:08:38;;;;;;;14.17;8.10;;;6.50;1.00;;;;;;4991666;28;20198;-78
2023/12/16 05:11:04;;;;;;;18.50;8.60;;;6.40;1.00;;;;;;4982992;28;20721;-76
2023/12/16 05:13:29;;;;;;;17.47;8.83;;;6.50;1.00;;;;;;4983394;28;20234;-76
2023/12/16 05:15:55;;;;;;;16.27;7.67;;;6.40;1.00;;;;;;4988590;28;20675;-77
2023/12/16 05:18:20;;;;;;;18.00;9.03;;;6.50;1.00;;;;;;4990066;28;20606;-76
2023/12/16 05:20:46;;;;;;;18.03;8.47;;;6.50;1.00;;;;;;4989684;28;20697;-76
2023/12/16 05:23:11;;;;;;;18.97;8.20;;;6.50;1.00;;;;;;4990149;28;20191;-77
2023/12/16 05:25:39;;;;;;;15.57;8.50;;;6.40;1.00;;;;;;4987670;28;20186;-76
2023/12/16 05:28:05;;;;;;;17.67;8.07;;;6.50;1.00;;;;;;4989916;28;20249;-76
2023/12/16 05:30:31;;;;;;;15.07;8.47;;;6.40;1.00;;;;;;4990650;28;20446;-76
2023/12/16 05:32:57;;;;;;;23.33;9.33;;;6.40;1.00;;;;;;4990052;28;20229;-76
2023/12/16 05:35:22;;;;;;;18.50;8.80;;;6.40;1.00;;;;;;4985640;28;20247;-77
2023/12/16 05:37:48;;;;;;;17.70;9.43;;;6.70;1.00;;;;;;4990400;28;20203;-77
2023/12/16 05:40:14;;;;;;;18.53;9.90;;;6.40;1.00;;;;;;4989945;28;20254;-77
2023/12/16 05:42:40;;;;;;;23.80;10.50;;;6.40;1.00;;;;;;4985520;28;20234;-76
2023/12/16 05:45:07;;;;;;;21.53;10.90;;;6.40;1.00;;;;;;4985004;28;20554;-76
2023/12/16 05:47:33;;;;;;;28.77;12.93;;;6.40;1.00;;;;;;4989973;28;20426;-77
2023/12/16 05:49:58;;;;;;;34.83;16.07;;;6.40;1.00;;;;;;4989623;28;20455;-78
2023/12/16 05:52:24;;;;;;;36.13;16.90;;;6.50;1.00;;;;;;4987688;28;20449;-76
2023/12/16 05:54:49;;;;;;;35.83;15.67;;;6.50;1.00;;;;;;4989960;28;20325;-76
2023/12/16 05:57:15;;;;;;;33.07;15.07;;;6.50;1.00;;;;;;4989437;28;20913;-76
2023/12/16 05:59:40;;;;;;;27.63;13.83;;;6.50;1.00;;;;;;4989974;28;20202;-76
2023/12/16 06:02:06;;;;;;;32.10;13.87;;;6.50;1.00;;;;;;4989264;28;20297;-76
2023/12/16 06:04:31;;;;;;;28.97;12.77;;;6.50;1.00;;;;;;4989046;28;20183;-76
2023/12/16 06:06:57;;;;;;;29.43;12.47;;;6.50;1.00;;;;;;4989830;28;20198;-76
2023/12/16 06:09:22;;;;;;;23.40;11.83;;;6.50;1.00;;;;;;4989682;28;21110;-76
2023/12/16 06:11:48;;;;;;;17.97;9.30;;;6.50;1.00;;;;;;4987433;28;20222;-76
2023/12/16 06:14:13;;;;;;;18.10;10.07;;;6.50;1.00;;;;;;4989636;28;20191;-77
2023/12/16 06:16:39;;;;;;;20.47;9.77;;;6.60;1.00;;;;;;4989705;28;20211;-76
2023/12/16 06:19:04;;;;;;;18.13;8.40;;;6.60;1.00;;;;;;4988041;28;20191;-74
2023/12/16 06:21:30;;;;;;;16.47;8.77;;;6.60;1.00;;;;;;4988599;28;20217;-77
2023/12/16 06:23:58;;;;;;;16.43;9.20;;;6.60;1.00;;;;;;4988015;28;20187;-76
2023/12/16 06:26:23;;;;;;;15.23;8.97;;;6.60;1.00;;;;;;4988438;28;20249;-76
2023/12/16 06:28:49;;;;;;;16.17;9.03;;;6.60;1.00;;;;;;4990010;28;20426;-76
2023/12/16 06:31:18;;;;;;;16.07;9.20;;;6.60;1.00;;;;;;4987069;28;20693;-76
2023/12/16 06:33:44;;;;;;;18.47;8.97;;;6.50;1.00;;;;;;4987046;28;20191;-76
2023/12/16 06:36:10;;;;;;;16.50;8.97;;;6.50;1.00;;;;;;4988139;28;20494;-75
2023/12/16 06:38:36;;;;;;;20.13;10.10;;;6.60;1.00;;;;;;4988693;28;20465;-76
2023/12/16 06:41:02;;;;;;;16.20;8.60;;;6.60;1.00;;;;;;4988583;28;20199;-76
2023/12/16 06:43:28;;;;;;;20.90;9.80;;;6.60;1.00;;;;;;4981427;28;20175;-76
2023/12/16 06:45:54;;;;;;;15.40;8.70;;;6.50;1.00;;;;;;4988867;28;20590;-76
2023/12/16 06:48:20;;;;;;;16.77;8.90;;;6.50;1.00;;;;;;4990185;28;20583;-76
2023/12/16 06:50:46;;;;;;;21.30;9.50;;;6.60;1.00;;;;;;4986784;28;20443;-76
2023/12/16 06:53:12;;;;;;;18.03;9.10;;;6.50;1.00;;;;;;4981237;28;20921;-76
2023/12/16 06:55:37;;;;;;;24.33;9.30;;;6.50;1.00;;;;;;4990381;28;20186;-75
2023/12/16 06:58:04;;;;;;;18.47;9.60;;;6.50;1.00;;;;;;4989270;28;20290;-75
2023/12/16 07:00:29;;;;;;;21.67;9.37;;;6.60;1.00;;;;;;4989043;28;20202;-75
2023/12/16 07:02:54;;;;;;;16.90;7.93;;;6.60;1.00;;;;;;4987650;28;20952;-75
2023/12/16 07:05:20;;;;;;;18.60;9.93;;;6.50;1.00;;;;;;4987555;28;20230;-75
2023/12/16 07:07:46;;;;;;;18.07;9.47;;;6.60;1.00;;;;;;4988244;28;20541;-76
2023/12/16 07:10:11;;;;;;;22.50;10.00;;;6.60;1.00;;;;;;4988415;28;20210;-75
2023/12/16 07:12:37;;;;;;;19.93;9.23;;;6.60;1.00;;;;;;4986347;28;20189;-76
2023/12/16 07:15:03;;;;;;;22.30;9.33;;;6.50;1.00;;;;;;4988343;28;20210;-75
2023/12/16 07:17:29;;;;;;;15.97;8.07;;;6.60;1.00;;;;;;4989197;28;20203;-75
2023/12/16 07:19:55;;;;;;;16.93;9.43;;;6.70;1.00;;;;;;4988723;28;20195;-74
2023/12/16 07:22:21;;;;;;;17.37;9.03;;;6.70;1.00;;;;;;4987288;28;20960;-76
2023/12/16 07:24:47;;;;;;;17.10;9.57;;;6.70;1.00;;;;;;4989594;28;20643;-76
2023/12/16 07:27:12;;;;;;;18.37;9.13;;;6.70;1.00;;;;;;4988349;28;20469;-74
2023/12/16 07:29:38;;;;;;;22.57;9.33;;;6.70;1.00;;;;;;4989071;28;20642;-75
2023/12/16 07:32:04;;;;;;;21.80;9.57;;;6.70;1.00;;;;;;4989499;28;20221;-75
2023/12/16 07:34:29;;;;;;;22.13;10.10;;;6.80;1.00;;;;;;4983899;28;20488;-77
2023/12/16 07:36:56;;;;;;;19.43;10.07;;;6.90;1.00;;;;;;4984644;28;20214;-75
2023/12/16 07:39:22;;;;;;;23.10;9.83;;;6.90;1.00;;;;;;4984936;28;20668;-74
2023/12/16 07:41:47;;;;;;;26.03;10.47;;;6.90;1.00;;;;;;4990786;28;20454;-74
2023/12/16 07:44:13;;;;;;;22.93;9.50;;;7.00;1.00;;;;;;4990947;28;20199;-75
2023/12/16 07:46:42;;;;;;;22.97;10.90;;;7.10;1.00;;;;;;4989060;28;20191;-75
2023/12/16 07:49:08;;;;;;;20.60;10.40;;;7.10;1.00;;;;;;4991522;28;20207;-75
2023/12/16 07:51:35;;;;;;;19.63;10.13;;;7.10;1.00;;;;;;4989218;28;20449;-75
2023/12/16 07:54:01;;;;;;;21.80;9.80;;;7.20;1.00;;;;;;4988985;28;20198;-75
2023/12/16 07:56:27;;;;;;;20.43;9.90;;;7.20;1.00;;;;;;4988749;28;20471;-75
2023/12/16 07:58:53;;;;;;;18.40;9.23;;;7.20;1.00;;;;;;4991042;28;20194;-76
2023/12/16 08:01:19;;;;;;;22.73;9.97;;;7.10;1.00;;;;;;4989204;28;20207;-74
2023/12/16 08:03:46;;;;;;;16.53;10.77;;;7.10;1.00;;;;;;4992951;28;20437;-77
2023/12/16 08:06:15;;;;;;;18.17;9.77;;;7.10;1.00;;;;;;4987402;28;20477;-74
2023/12/16 08:08:41;;;;;;;20.20;9.93;;;7.30;1.00;;;;;;4985555;28;20768;-75
2023/12/16 08:11:08;;;;;;;20.10;9.53;;;7.20;1.00;;;;;;4990422;28;20472;-74
2023/12/16 08:13:34;;;;;;;25.83;9.80;;;7.20;1.00;;;;;;4990658;28;20418;-75
2023/12/16 08:16:01;;;;;;;20.77;10.10;;;7.30;1.00;;;;;;4990939;28;20509;-75
2023/12/16 08:18:27;;;;;;;18.87;9.60;;;7.30;1.00;;;;;;4989577;28;20426;-73
2023/12/16 08:20:53;;;;;;;22.40;10.33;;;7.40;1.00;;;;;;4989328;28;20461;-76
2023/12/16 08:23:19;;;;;;;26.50;10.50;;;7.50;1.00;;;;;;4989612;28;20438;-74
2023/12/16 08:25:45;;;;;;;21.63;9.27;;;7.50;1.00;;;;;;4992336;28;20808;-76
2023/12/16 08:28:11;;;;;;;22.00;9.73;;;7.50;1.00;;;;;;4992460;28;20442;-76
2023/12/16 08:30:36;;;;;;;21.63;10.30;;;7.60;1.00;;;;;;4989634;28;20236;-77
2023/12/16 08:33:02;;;;;;;20.03;10.43;;;7.60;1.00;;;;;;4991533;28;20198;-77
2023/12/16 08:35:28;;;;;;;17.63;9.67;;;7.80;1.00;;;;;;4990163;28;20206;-75
2023/12/16 08:37:55;;;;;;;18.80;9.70;;;7.90;1.00;;;;;;4987659;28;20295;-75
2023/12/16 08:40:21;;;;;;;21.40;9.97;;;8.00;1.00;;;;;;4990785;28;20492;-75
2023/12/16 08:42:46;;;;;;;21.93;9.13;;;8.10;1.00;;;;;;4981606;28;20439;-76
2023/12/16 08:45:12;;;;;;;21.40;9.97;;;8.10;1.00;;;;;;4983168;28;20522;-75
2023/12/16 08:47:38;;;;;;;16.97;9.07;;;8.20;1.00;;;;;;4990398;28;20511;-75
2023/12/16 08:50:07;;;;;;;18.90;10.53;;;8.10;1.00;;;;;;4987600;28;20500;-75
2023/12/16 08:52:34;;;;;;;17.93;9.87;;;8.00;1.00;;;;;;4989592;28;20195;-75
2023/12/16 08:55:00;;;;;;;20.20;10.30;;;8.00;1.00;;;;;;4990907;28;20438;-75
2023/12/16 08:57:27;;;;;;;16.63;9.17;;;8.10;1.00;;;;;;4991113;28;20477;-75
2023/12/16 08:59:53;;;;;;;21.60;11.50;;;8.20;1.00;;;;;;4989794;28;20418;-75
2023/12/16 09:02:19;;;;;;;20.80;9.93;;;8.20;1.00;;;;;;4988962;28;20446;-77
2023/12/16 09:04:44;;;;;;;21.03;10.60;;;8.30;1.00;;;;;;4982177;28;20211;-75
2023/12/16 09:07:11;;;;;;;25.50;10.30;;;8.30;1.00;;;;;;4990390;28;20720;-75
2023/12/16 09:09:37;;;;;;;21.40;10.10;;;8.30;1.00;;;;;;4988968;28;20194;-74
2023/12/16 09:12:03;;;;;;;18.00;9.93;;;8.30;1.00;;;;;;4986903;28;20947;-74
2023/12/16 09:14:29;;;;;;;17.33;9.13;;;8.30;1.00;;;;;;4988125;28;20518;-75
2023/12/16 09:16:54;;;;;;;16.43;8.80;;;8.30;1.00;;;;;;4990386;28;20552;-75
2023/12/16 09:19:20;;;;;;;26.67;10.00;;;8.30;1.00;;;;;;4988666;28;20600;-75
2023/12/16 09:21:48;;;;;;;18.73;9.83;;;8.30;1.00;;;;;;4989317;28;20207;-75
2023/12/16 09:24:14;;;;;;;20.10;10.37;;;8.30;1.00;;;;;;4989224;28;20565;-75
2023/12/16 09:26:39;;;;;;;21.10;9.97;;;8.40;1.00;;;;;;4990727;28;20426;-75
2023/12/16 09:29:05;;;;;;;16.90;9.60;;;8.60;1.00;;;;;;4989105;28;20186;-74
2023/12/16 09:31:31;;;;;;;18.50;9.70;;;8.80;1.00;;;;;;4989804;28;20203;-75
2023/12/16 09:33:57;;;;;;;23.20;9.67;;;8.80;1.00;;;;;;4990520;28;20183;-75
2023/12/16 09:36:26;;;;;;;18.27;9.57;;;8.90;1.00;;;;;;4989598;28;20211;-75
2023/12/16 09:38:54;;;;;;;16.00;9.07;;;8.90;1.00;;;;;;4987790;28;20511;-75
2023/12/16 09:41:22;;;;;;;17.23;9.67;;;9.10;1.00;;;;;;4985089;28;20434;-75
2023/12/16 09:43:53;;;;;;;20.43;10.20;;;9.20;1.00;;;;;;4988057;28;20426;-75
2023/12/16 09:46:20;;;;;;;21.97;10.13;;;9.30;1.00;;;;;;4990691;28;20960;-75
2023/12/16 09:48:46;;;;;;;18.27;10.30;;;9.30;1.00;;;;;;4987422;28;20422;-75
2023/12/16 09:51:11;;;;;;;19.00;9.60;;;9.30;1.00;;;;;;4984358;28;21027;-75
2023/12/16 09:53:37;;;;;;;17.70;9.63;;;9.40;1.00;;;;;;4983907;28;20766;-75
2023/12/16 09:56:02;;;;;;;19.10;9.80;;;9.70;1.00;;;;;;4989966;28;20657;-75
2023/12/16 09:58:33;;;;;;;17.47;9.40;;;10.00;1.00;;;;;;4989521;28;20267;-74
2023/12/16 10:00:58;;;;;;;17.70;9.60;;;10.60;1.00;;;;;;4989754;28;20214;-75
2023/12/16 10:03:24;;;;;;;15.67;8.97;;;10.80;1.00;;;;;;4989146;28;20864;-75
2023/12/16 10:05:51;;;;;;;20.77;9.80;;;10.70;1.00;;;;;;4986788;28;20270;-75
2023/12/16 10:08:16;;;;;;;21.93;10.50;;;10.50;1.00;;;;;;4989989;28;20661;-75
2023/12/16 10:10:42;;;;;;;18.27;9.60;;;10.20;1.00;;;;;;4989126;28;20445;-75
2023/12/16 10:13:08;;;;;;;17.27;9.43;;;10.10;1.00;;;;;;4984215;28;20191;-75
2023/12/16 10:15:34;;;;;;;17.20;9.33;;;10.00;1.00;;;;;;4988076;28;20253;-74
2023/12/16 10:18:04;;;;;;;19.93;9.60;;;9.90;1.00;;;;;;4980350;28;20298;-75
2023/12/16 10:20:31;;;;;;;17.07;9.40;;;10.10;1.00;;;;;;4988432;28;20888;-75
2023/12/16 10:23:00;;;;;;;19.57;9.23;;;10.10;1.00;;;;;;4986690;28;20784;-75
2023/12/16 10:25:25;;;;;;;15.00;9.20;;;9.90;1.00;;;;;;4986633;28;20769;-75
2023/12/16 10:28:01;;;;;;;20.23;10.30;;;9.80;1.00;;;;;;4989128;28;20430;-76
2023/12/16 10:30:27;;;;;;;19.40;9.70;;;10.00;1.00;;;;;;4988881;28;20206;-75
2023/12/16 10:32:55;;;;;;;17.83;9.53;;;10.10;1.00;;;;;;4984678;28;20434;-74
2023/12/16 10:35:23;;;;;;;17.07;9.50;;;10.10;1.00;;;;;;4985632;28;20194;-74
2023/12/16 10:37:50;;;;;;;17.40;9.43;;;10.30;1.00;;;;;;4989248;28;20470;-74
2023/12/16 10:40:16;;;;;;;24.93;9.30;;;11.00;1.00;;;;;;4988727;28;20448;-76
2023/12/16 10:42:42;;;;;;;17.47;9.70;;;11.10;1.00;;;;;;4988078;28;20428;-74
2023/12/16 10:45:09;;;;;;;17.80;9.13;;;11.40;1.00;;;;;;4987943;28;20435;-74
2023/12/16 10:47:36;;;;;;;19.37;9.60;;;11.80;1.00;;;;;;4989118;28;20578;-77
2023/12/16 10:50:03;;;;;;;14.00;8.70;;;12.70;1.00;;;;;;4988651;28;20442;-74
2023/12/16 10:52:39;;;;;;;17.70;9.53;;;12.80;1.00;;;;;;4988734;28;21003;-75
2023/12/16 10:55:06;;;;;;;18.47;9.50;;;14.20;1.00;;;;;;4985630;28;20430;-77
2023/12/16 10:58:12;;;;;;;14.97;8.80;;;17.30;1.00;;;;;;4988778;28;20473;-75
2023/12/16 11:00:40;;;;;;;20.50;11.07;;;22.00;1.00;;;;;;4980735;28;20472;-74
2023/12/16 11:03:12;;;;;;;20.77;11.30;;;22.80;1.00;;;;;;4988602;28;20426;-74
2023/12/16 11:05:45;;;;;;;16.87;10.23;;;24.40;1.00;;;;;;4987711;28;20454;-75
2023/12/16 11:08:12;;;;;;;17.53;10.37;;;25.80;1.00;;;;;;4984600;28;20445;-75
2023/12/16 11:10:38;;;;;;;18.00;10.27;;;27.20;1.00;;;;;;4986608;28;20916;-75
2023/12/16 11:13:04;;;;;;;18.20;10.87;;;27.50;1.00;;;;;;4982285;28;20513;-75
2023/12/16 11:15:32;;;;;;;17.07;9.80;;;28.30;1.00;;;;;;4986835;28;20602;-75
2023/12/16 11:18:17;;;;;;;23.17;10.17;;;29.10;1.00;;;;;;4984452;28;20880;-75
2023/12/16 11:20:46;;;;;;;17.33;10.33;;;29.70;1.00;;;;;;4983968;28;20215;-75
2023/12/16 11:23:15;;;;;;;15.10;9.67;;;29.30;1.00;;;;;;4986974;28;20727;-75
2023/12/16 11:25:42;;;;;;;14.20;9.43;;;28.80;1.00;;;;;;4987521;28;20186;-75
2023/12/16 11:28:08;;;;;;;14.10;9.10;;;27.50;1.00;;;;;;4985897;28;20205;-76
2023/12/16 11:30:34;;;;;;;16.63;8.43;;;24.50;1.00;;;;;;4987905;28;20453;-75
2023/12/16 11:33:00;;;;;;;13.00;7.87;;;24.20;1.00;;;;;;4989039;28;20421;-75
2023/12/16 11:35:49;;;;;;;14.27;8.20;;;25.40;1.00;;;;;;4985785;28;20194;-74
2023/12/16 11:38:38;;;;;;;17.33;7.97;;;26.70;1.00;;;;;;4983119;28;20205;-76
2023/12/16 11:41:04;;;;;;;15.03;9.00;;;25.70;1.00;;;;;;4988023;28;20940;-76
2023/12/16 11:43:46;;;;;;;11.57;7.40;;;24.00;1.00;;;;;;4987231;28;20937;-77
2023/12/16 11:46:39;;;;;;;11.50;6.90;;;20.90;1.00;;;;;;4983805;28;20436;-77
2023/12/16 11:49:07;;;;;;;13.00;7.13;;;18.60;1.00;;;;;;4982197;28;20429;-73
2023/12/16 11:51:34;;;;;;;13.20;7.40;;;17.10;1.00;;;;;;4995359;28;20685;-76
2023/12/16 11:54:01;;;;;;;12.50;7.60;;;16.10;1.00;;;;;;4981197;28;20422;-77
2023/12/16 11:56:27;;;;;;;12.80;5.80;;;15.70;1.00;;;;;;4989089;28;20498;-77
2023/12/16 11:58:57;;;;;;;9.70;5.57;;;16.30;1.00;;;;;;4989175;28;20980;-76
2023/12/16 12:01:27;;;;;;;14.80;6.60;;;15.30;1.00;;;;;;4988632;28;20290;-75
2023/12/16 12:03:54;;;;;;;13.30;6.90;;;14.80;1.00;;;;;;4987035;28;20426;-76
2023/12/16 12:06:20;;;;;;;10.30;6.10;;;14.20;1.00;;;;;;4988450;28;20430;-76
2023/12/16 12:08:46;;;;;;;9.10;5.60;;;13.80;1.00;;;;;;4981122;28;20496;-75
2023/12/16 12:11:12;;;;;;;16.83;5.93;;;13.20;1.00;;;;;;4978713;28;20227;-75
2023/12/16 12:13:38;;;;;;;12.13;5.33;;;12.90;1.00;;;;;;4983290;28;20438;-75
2023/12/16 12:16:05;;;;;;;13.80;5.60;;;12.50;1.00;;;;;;4989184;28;20445;-76
2023/12/16 12:18:31;;;;;;;8.97;5.60;;;12.40;1.00;;;;;;4987718;28;20201;-75
2023/12/16 12:20:56;;;;;;;11.60;5.73;;;12.10;1.00;;;;;;4980004;28;20566;-76
2023/12/16 12:23:22;;;;;;;11.97;6.47;;;12.00;1.00;;;;;;4990063;28;20219;-76
2023/12/16 12:25:56;;;;;;;15.33;7.10;;;11.80;1.00;;;;;;4991334;28;20191;-75
2023/12/16 12:28:22;;;;;;;16.50;6.37;;;11.80;1.00;;;;;;4992423;28;20614;-75
2023/12/16 12:30:48;;;;;;;14.60;6.57;;;10.40;1.00;;;;;;4991805;28;20533;-76
2023/12/16 12:33:13;;;;;;;9.40;5.90;;;11.60;1.00;;;;;;4991924;28;20274;-76
2023/12/16 12:35:39;;;;;;;14.50;6.17;;;11.50;1.00;;;;;;4987141;28;20546;-75
2023/12/16 12:38:04;;;;;;;11.70;5.67;;;11.30;1.00;;;;;;4985315;28;20286;-75
2023/12/16 12:40:30;;;;;;;11.27;5.47;;;11.30;1.00;;;;;;4991844;28;20210;-76
2023/12/16 12:43:00;;;;;;;12.73;5.53;;;11.30;1.00;;;;;;4988679;28;20184;-75
2023/12/16 12:45:36;;;;;;;13.33;5.50;;;11.50;1.00;;;;;;4991335;28;20179;-75
2023/12/16 12:48:11;;;;;;;12.40;5.53;;;11.60;1.00;;;;;;4991220;28;20804;-76
2023/12/16 12:50:37;;;;;;;11.90;6.57;;;11.60;1.00;;;;;;4991137;28;20458;-76